Time;durP1;ratioP1;P1;durP2;ratioP2;P2;SDS_P1;SDS_P2;PMS_P1;PMS_P2;Temp;Humidity;BMP_temperature;BMP_pressure;BME280_temperature;BME280_humidity;BME280_pressure;Samples;Min_cycle;Max_cycle;Signal;HPM_P1;HPM_P2
2022/12/05 00:01:11;;;;;;;;;;;14.10;51.90;;;;;;5052338;28;19976;-92
2022/12/05 00:03:36;;;;;;;;;;;14.10;52.00;;;;;;5053809;28;20202;-92
2022/12/05 00:06:05;;;;;;;;;;;14.10;52.00;;;;;;5054291;28;20275;-92
2022/12/05 00:08:34;;;;;;;;;;;14.10;51.90;;;;;;5053520;28;19913;-92
2022/12/05 00:10:59;;;;;;;;;;;14.10;51.90;;;;;;5054544;28;19909;-92
2022/12/05 00:13:25;;;;;;;;;;;14.10;52.00;;;;;;5053550;28;19915;-92
2022/12/05 00:15:50;;;;;;;;;;;14.10;52.00;;;;;;5052978;28;19912;-92
2022/12/05 00:18:16;;;;;;;;;;;14.10;51.80;;;;;;5052995;28;19909;-92
2022/12/05 00:20:45;;;;;;;;;;;14.10;52.00;;;;;;5052644;28;19908;-92
2022/12/05 00:23:14;;;;;;;;;;;14.10;52.00;;;;;;5053143;28;19996;-92
2022/12/05 00:25:40;;;;;;;;;;;14.10;52.00;;;;;;5052782;28;19952;-92
2022/12/05 00:28:08;;;;;;;;;;;14.10;52.00;;;;;;5051582;28;19951;-92
2022/12/05 00:30:37;;;;;;;;;;;14.00;52.00;;;;;;5052700;28;19927;-92
2022/12/05 00:33:03;;;;;;;;;;;14.00;52.10;;;;;;5052758;28;19909;-92
2022/12/05 00:35:28;;;;;;;;;;;14.00;52.10;;;;;;5053891;28;19919;-91
2022/12/05 00:37:57;;;;;;;;;;;14.00;52.10;;;;;;5053182;28;19905;-92
2022/12/05 00:40:25;;;;;;;;;;;14.00;52.20;;;;;;5054009;28;20486;-92
2022/12/05 00:42:54;;;;;;;;;;;14.00;52.20;;;;;;5036190;28;19920;-92
2022/12/05 00:45:20;;;;;;;;;;;14.00;52.20;;;;;;5053856;28;19956;-92
2022/12/05 00:47:45;;;;;;;;;;;14.00;52.20;;;;;;5054199;28;19951;-91
2022/12/05 00:50:11;;;;;;;;;;;13.90;52.30;;;;;;5054096;28;20070;-92
2022/12/05 00:52:37;;;;;;;;;;;13.90;52.30;;;;;;5054212;28;19909;-92
2022/12/05 00:55:06;;;;;;;;;;;13.90;52.30;;;;;;5054816;28;19917;-92
2022/12/05 00:57:31;;;;;;;;;;;13.90;52.40;;;;;;5054760;28;20274;-92
2022/12/05 00:59:57;;;;;;;;;;;13.90;52.40;;;;;;5054340;28;19909;-92
2022/12/05 01:02:25;;;;;;;;;;;13.90;52.40;;;;;;5055167;28;19975;-91
2022/12/05 01:04:54;;;;;;;;;;;13.80;52.40;;;;;;5055051;28;19928;-92
2022/12/05 01:07:23;;;;;;;;;;;13.80;52.40;;;;;;5055195;28;19931;-92
2022/12/05 01:09:51;;;;;;;;;;;13.80;52.50;;;;;;5055054;28;19916;-92
2022/12/05 01:12:17;;;;;;;;;;;13.80;52.50;;;;;;5054125;28;20289;-92
2022/12/05 01:14:43;;;;;;;;;;;13.80;52.50;;;;;;5054908;28;19904;-92
2022/12/05 01:17:11;;;;;;;;;;;13.80;52.50;;;;;;5054568;28;19970;-92
2022/12/05 01:19:37;;;;;;;;;;;13.80;52.60;;;;;;5054702;28;19939;-92
2022/12/05 01:22:05;;;;;;;;;;;13.70;52.60;;;;;;5052563;28;19909;-92
2022/12/05 01:24:31;;;;;;;;;;;13.70;52.60;;;;;;5053661;28;19909;-92
2022/12/05 01:26:57;;;;;;;;;;;13.70;52.60;;;;;;5053718;28;19921;-92
2022/12/05 01:29:23;;;;;;;;;;;13.70;52.70;;;;;;5053474;28;19939;-92
2022/12/05 01:31:48;;;;;;;;;;;13.70;52.70;;;;;;5052377;28;20004;-92
2022/12/05 01:34:15;;;;;;;;;;;13.70;52.80;;;;;;5052167;28;19999;-91
2022/12/05 01:36:44;;;;;;;;;;;13.60;52.70;;;;;;5052837;28;20270;-92
2022/12/05 01:39:10;;;;;;;;;;;13.70;52.80;;;;;;5053726;28;19999;-92
2022/12/05 01:41:43;;;;;;;;;;;13.60;52.80;;;;;;5052766;28;19909;-92
2022/12/05 01:44:11;;;;;;;;;;;13.60;52.80;;;;;;5052920;28;19908;-92
2022/12/05 01:46:38;;;;;;;;;;;13.60;52.80;;;;;;5070003;28;20003;-92
2022/12/05 01:49:21;;;;;;;;;;;13.60;52.90;;;;;;5054141;28;20275;-92
2022/12/05 01:51:52;;;;;;;;;;;13.50;52.90;;;;;;5037344;28;20062;-92
2022/12/05 01:54:19;;;;;;;;;;;13.50;53.00;;;;;;5053798;28;19913;-92
2022/12/05 01:56:48;;;;;;;;;;;13.50;53.10;;;;;;5057914;28;19909;-92
2022/12/05 01:59:14;;;;;;;;;;;13.50;53.10;;;;;;5058109;28;19909;-92
2022/12/05 02:01:40;;;;;;;;;;;13.50;53.10;;;;;;5058391;28;19938;-92
2022/12/05 02:04:05;;;;;;;;;;;13.50;53.20;;;;;;5058240;28;19908;-92
2022/12/05 02:06:31;;;;;;;;;;;13.50;53.20;;;;;;5058066;28;19913;-92
2022/12/05 02:08:57;;;;;;;;;;;13.40;53.20;;;;;;5058137;28;19917;-92
2022/12/05 02:11:25;;;;;;;;;;;13.40;53.30;;;;;;5040723;28;19916;-92
2022/12/05 02:13:57;;;;;;;;;;;13.40;53.30;;;;;;5057285;28;19909;-92
2022/12/05 02:16:33;;;;;;;;;;;13.40;53.30;;;;;;5073152;28;19909;-92
2022/12/05 02:19:24;;;;;;;;;;;13.40;53.40;;;;;;5057321;28;20015;-92
2022/12/05 02:22:18;;;;;;;;;;;13.40;53.40;;;;;;5069054;28;19913;-92
2022/12/05 02:24:47;;;;;;;;;;;13.40;53.40;;;;;;5056867;28;20293;-92
2022/12/05 02:27:13;;;;;;;;;;;13.30;53.40;;;;;;5072505;28;19909;-92
2022/12/05 02:29:51;;;;;;;;;;;13.40;53.50;;;;;;5072700;28;19940;-92
2022/12/05 02:32:25;;;;;;;;;;;13.30;53.50;;;;;;5055947;28;19948;-92
2022/12/05 02:34:51;;;;;;;;;;;13.30;53.50;;;;;;5073071;28;20004;-92
2022/12/05 02:37:21;;;;;;;;;;;13.30;53.50;;;;;;5072587;28;19999;-92
2022/12/05 02:39:50;;;;;;;;;;;13.30;53.50;;;;;;5055465;28;19916;-92
2022/12/05 02:42:35;;;;;;;;;;;13.30;53.60;;;;;;5072105;28;19944;-92
2022/12/05 02:45:09;;;;;;;;;;;13.30;53.60;;;;;;5055906;28;19962;-92
2022/12/05 02:47:37;;;;;;;;;;;13.30;53.60;;;;;;5055741;28;20327;-92
2022/12/05 02:50:03;;;;;;;;;;;13.30;53.60;;;;;;5054621;28;20266;-92
2022/12/05 02:52:29;;;;;;;;;;;13.30;53.60;;;;;;5051832;28;19909;-92
2022/12/05 02:54:55;;;;;;;;;;;13.30;53.60;;;;;;5052995;28;19913;-92
2022/12/05 02:57:23;;;;;;;;;;;13.30;53.60;;;;;;5051178;28;20248;-92
2022/12/05 02:59:52;;;;;;;;;;;13.30;53.60;;;;;;5051606;28;19909;-92
2022/12/05 03:02:30;;;;;;;;;;;13.30;53.60;;;;;;5052016;28;19936;-92
2022/12/05 03:05:16;;;;;;;;;;;13.20;53.60;;;;;;5036554;28;20097;-92
2022/12/05 03:07:43;;;;;;;;;;;13.20;53.60;;;;;;5068493;28;20328;-92
2022/12/05 03:10:09;;;;;;;;;;;13.20;53.70;;;;;;5055390;28;19940;-92
2022/12/05 03:12:43;;;;;;;;;;;13.20;53.70;;;;;;5055859;28;19956;-91
2022/12/05 03:15:32;;;;;;;;;;;13.20;53.70;;;;;;5056898;28;20007;-92
2022/12/05 03:18:10;;;;;;;;;;;13.20;53.80;;;;;;5062046;28;19909;-92
2022/12/05 03:20:39;;;;;;;;;;;13.20;53.80;;;;;;5056673;28;20288;-92
2022/12/05 03:23:10;;;;;;;;;;;13.20;53.80;;;;;;5057394;28;19945;-92
2022/12/05 03:26:10;;;;;;;;;;;13.20;53.80;;;;;;5057009;28;19935;-92
2022/12/05 03:28:45;;;;;;;;;;;13.10;53.80;;;;;;5058924;28;20191;-92
2022/12/05 03:31:13;;;;;;;;;;;13.20;53.90;;;;;;5073402;28;19913;-92
2022/12/05 03:33:44;;;;;;;;;;;13.20;53.90;;;;;;5056376;28;19917;-92
2022/12/05 03:36:13;;;;;;;;;;;13.10;53.90;;;;;;5056604;28;19909;-92
2022/12/05 03:38:42;;;;;;;;;;;13.10;53.90;;;;;;5054803;28;19952;-92
2022/12/05 03:41:21;;;;;;;;;;;13.10;54.00;;;;;;5056187;28;19970;-92
2022/12/05 03:44:05;;;;;;;;;;;13.10;54.00;;;;;;5055594;28;20190;-92
2022/12/05 03:46:35;;;;;;;;;;;13.00;54.00;;;;;;5072115;28;19932;-92
2022/12/05 03:49:00;;;;;;;;;;;13.00;54.10;;;;;;5055798;28;20160;-92
2022/12/05 03:51:33;;;;;;;;;;;13.00;54.10;;;;;;5072674;28;19916;-92
2022/12/05 03:54:10;;;;;;;;;;;13.00;54.20;;;;;;5056682;28;20003;-92
2022/12/05 03:56:44;;;;;;;;;;;12.90;54.20;;;;;;5056819;28;19939;-92
2022/12/05 03:59:17;;;;;;;;;;;12.90;54.30;;;;;;5055163;28;20003;-92
2022/12/05 04:01:46;;;;;;;;;;;12.90;54.40;;;;;;5055616;28;19916;-92
2022/12/05 04:04:18;;;;;;;;;;;12.80;54.50;;;;;;5055278;28;19917;-92
2022/12/05 04:06:46;;;;;;;;;;;12.80;54.60;;;;;;5055437;28;20171;-92
2022/12/05 04:09:16;;;;;;;;;;;12.70;54.60;;;;;;5055112;28;19917;-92
2022/12/05 04:11:45;;;;;;;;;;;12.70;54.70;;;;;;5055330;28;19909;-92
2022/12/05 04:14:19;;;;;;;;;;;12.70;54.80;;;;;;5055558;28;20301;-91
2022/12/05 04:17:03;;;;;;;;;;;12.70;55.00;;;;;;5055009;28;19963;-92
2022/12/05 04:22:23;;;;;;;;;;;14.60;52.20;;;;;;5055939;28;19920;-91
2022/12/05 04:27:37;;;;;;;;;;;15.40;50.70;;;;;;5055774;28;19935;-92
2022/12/05 04:30:15;;;;;;;;;;;15.60;50.30;;;;;;5071312;28;19909;-92
2022/12/05 04:33:06;;;;;;;;;;;15.80;50.00;;;;;;5055357;28;19932;-91
2022/12/05 04:35:34;;;;;;;;;;;16.10;49.70;;;;;;5053504;28;19939;-92
2022/12/05 04:38:07;;;;;;;;;;;16.30;49.40;;;;;;5052938;28;19908;-91
2022/12/05 04:40:38;;;;;;;;;;;16.40;49.20;;;;;;5051657;28;20197;-92
2022/12/05 04:43:07;;;;;;;;;;;16.50;49.10;;;;;;5052898;28;20175;-92
2022/12/05 04:45:34;;;;;;;;;;;16.60;49.00;;;;;;5052118;28;19939;-92
2022/12/05 04:48:03;;;;;;;;;;;16.80;48.80;;;;;;5051412;28;19917;-91
2022/12/05 04:50:30;;;;;;;;;;;16.90;48.70;;;;;;5052795;28;20262;-91
2022/12/05 04:53:03;;;;;;;;;;;17.00;48.50;;;;;;5051830;28;19974;-91
2022/12/05 04:55:30;;;;;;;;;;;17.10;48.80;;;;;;5052665;28;20270;-91
2022/12/05 04:58:02;;;;;;;;;;;17.20;48.40;;;;;;5053313;28;19986;-92
2022/12/05 05:00:30;;;;;;;;;;;17.30;48.40;;;;;;5070174;28;19909;-91
2022/12/05 05:03:05;;;;;;;;;;;17.40;48.40;;;;;;5052795;28;19909;-91
2022/12/05 05:05:31;;;;;;;;;;;17.50;48.20;;;;;;5069398;28;19919;-92
2022/12/05 05:07:57;;;;;;;;;;;17.60;48.10;;;;;;5051965;28;20333;-91
2022/12/05 05:10:30;;;;;;;;;;;17.70;48.00;;;;;;5051448;28;20161;-92
2022/12/05 05:12:55;;;;;;;;;;;17.70;48.00;;;;;;5050918;28;20019;-92
2022/12/05 05:15:21;;;;;;;;;;;17.70;48.00;;;;;;5051038;28;20003;-91
2022/12/05 05:17:46;;;;;;;;;;;17.70;48.00;;;;;;5049700;28;20008;-92
2022/12/05 05:20:25;;;;;;;;;;;17.80;48.00;;;;;;5033989;28;19909;-91
2022/12/05 05:22:52;;;;;;;;;;;17.90;47.90;;;;;;5050639;28;19913;-91
2022/12/05 05:25:18;;;;;;;;;;;18.00;47.80;;;;;;5050592;28;19975;-92
2022/12/05 05:27:46;;;;;;;;;;;18.10;47.80;;;;;;5050502;28;20248;-91
2022/12/05 05:30:12;;;;;;;;;;;18.10;47.60;;;;;;5050515;28;20221;-91
2022/12/05 05:32:38;;;;;;;;;;;18.10;47.70;;;;;;5054324;28;19921;-92
2022/12/05 05:35:06;;;;;;;;;;;18.10;47.70;;;;;;5053171;28;19913;-91
2022/12/05 05:37:31;;;;;;;;;;;18.10;47.80;;;;;;5053742;28;19963;-91
2022/12/05 05:39:57;;;;;;;;;;;18.00;47.80;;;;;;5054601;28;19929;-91
2022/12/05 05:42:22;;;;;;;;;;;18.00;47.90;;;;;;5052407;28;19948;-91
2022/12/05 05:44:48;;;;;;;;;;;17.90;48.10;;;;;;5055257;28;19908;-91
2022/12/05 05:47:20;;;;;;;;;;;17.80;48.20;;;;;;5052313;28;19908;-91
2022/12/05 05:49:45;;;;;;;;;;;17.70;48.40;;;;;;5052261;28;20270;-92
2022/12/05 05:52:11;;;;;;;;;;;17.50;48.60;;;;;;5051975;28;19958;-92
2022/12/05 05:54:36;;;;;;;;;;;17.40;48.80;;;;;;5053226;28;20218;-92
2022/12/05 05:57:11;;;;;;;;;;;17.30;49.00;;;;;;5052309;28;19935;-92
2022/12/05 05:59:43;;;;;;;;;;;17.10;49.20;;;;;;5052605;28;20291;-92
2022/12/05 06:02:11;;;;;;;;;;;17.00;49.30;;;;;;5054786;28;19909;-92
2022/12/05 06:04:40;;;;;;;;;;;16.90;49.60;;;;;;5052524;28;19917;-92
2022/12/05 06:07:05;;;;;;;;;;;16.80;49.70;;;;;;5051738;28;19935;-92
2022/12/05 06:09:34;;;;;;;;;;;16.70;49.80;;;;;;5051895;28;20301;-91
2022/12/05 06:12:01;;;;;;;;;;;16.70;49.90;;;;;;5051170;28;19920;-91
2022/12/05 06:14:29;;;;;;;;;;;16.70;49.90;;;;;;5052329;28;20186;-91
2022/12/05 06:16:58;;;;;;;;;;;16.80;49.80;;;;;;5049457;28;20296;-91
2022/12/05 06:19:27;;;;;;;;;;;16.90;49.60;;;;;;5050145;28;20195;-91
2022/12/05 06:21:52;;;;;;;;;;;17.10;49.50;;;;;;5049027;28;20012;-91
2022/12/05 06:24:18;;;;;;;;;;;17.30;49.20;;;;;;5049312;28;20007;-91
2022/12/05 06:26:43;;;;;;;;;;;17.50;49.00;;;;;;5048579;28;19908;-91
2022/12/05 06:29:09;;;;;;;;;;;17.60;48.90;;;;;;5046708;28;19939;-91
2022/12/05 06:31:35;;;;;;;;;;;17.70;48.60;;;;;;5045626;28;20172;-91
2022/12/05 06:34:01;;;;;;;;;;;17.80;48.70;;;;;;5047093;28;19909;-91
2022/12/05 06:36:28;;;;;;;;;;;17.80;48.70;;;;;;5044836;28;19908;-91
2022/12/05 06:38:59;;;;;;;;;;;17.80;48.70;;;;;;5046372;28;19909;-92
2022/12/05 06:41:26;;;;;;;;;;;17.80;49.10;;;;;;5044968;28;20274;-92
2022/12/05 06:43:53;;;;;;;;;;;17.80;48.70;;;;;;5046771;28;19909;-91
2022/12/05 06:46:19;;;;;;;;;;;17.90;48.80;;;;;;5048131;28;19917;-91
2022/12/05 06:48:46;;;;;;;;;;;17.90;48.90;;;;;;5050008;28;20001;-92
2022/12/05 06:51:15;;;;;;;;;;;17.80;48.90;;;;;;5051082;28;19908;-92
2022/12/05 06:53:41;;;;;;;;;;;17.80;49.10;;;;;;5049449;28;19984;-92
2022/12/05 06:56:12;;;;;;;;;;;17.80;49.20;;;;;;5051132;28;19909;-92
2022/12/05 06:58:41;;;;;;;;;;;17.80;49.20;;;;;;5049539;28;19959;-91
2022/12/05 07:03:58;;;;;;;;;;;17.70;49.40;;;;;;5050530;28;20240;-91
2022/12/05 07:06:24;;;;;;;;;;;17.70;49.50;;;;;;5050041;28;20297;-91
2022/12/05 07:08:50;;;;;;;;;;;17.60;49.60;;;;;;5049310;28;19912;-91
2022/12/05 07:11:18;;;;;;;;;;;17.60;49.70;;;;;;5049249;28;19913;-91
2022/12/05 07:13:47;;;;;;;;;;;17.50;49.70;;;;;;5048473;28;20289;-91
2022/12/05 07:16:15;;;;;;;;;;;17.50;49.90;;;;;;5047627;28;19936;-92
2022/12/05 07:18:41;;;;;;;;;;;17.50;49.90;;;;;;5046856;28;19924;-92
2022/12/05 07:21:08;;;;;;;;;;;17.40;50.00;;;;;;5048004;28;20367;-92
2022/12/05 07:23:36;;;;;;;;;;;17.30;50.00;;;;;;5050086;28;20011;-92
2022/12/05 07:26:06;;;;;;;;;;;17.30;50.00;;;;;;5049699;28;19909;-92
2022/12/05 07:28:31;;;;;;;;;;;17.30;50.10;;;;;;5049412;28;19917;-91
2022/12/05 07:31:01;;;;;;;;;;;17.20;50.10;;;;;;5049865;28;19913;-92
2022/12/05 07:33:29;;;;;;;;;;;17.10;50.20;;;;;;5035678;28;19992;-92
2022/12/05 07:35:59;;;;;;;;;;;17.10;50.30;;;;;;5052940;28;19956;-92
2022/12/05 07:38:25;;;;;;;;;;;17.10;50.30;;;;;;5049865;28;19963;-91
2022/12/05 07:40:50;;;;;;;;;;;17.10;50.30;;;;;;5051060;28;20302;-92
2022/12/05 07:43:16;;;;;;;;;;;17.10;50.30;;;;;;5050247;28;19948;-92
2022/12/05 07:45:44;;;;;;;;;;;17.10;50.40;;;;;;5050433;28;19909;-92
2022/12/05 07:48:11;;;;;;;;;;;17.10;50.30;;;;;;5050291;28;20194;-92
2022/12/05 07:50:37;;;;;;;;;;;17.10;50.30;;;;;;5045776;28;20148;-92
2022/12/05 07:53:02;;;;;;;;;;;17.20;50.20;;;;;;5047056;28;19917;-92
2022/12/05 07:55:28;;;;;;;;;;;17.20;50.20;;;;;;5044912;28;20252;-92
2022/12/05 07:57:56;;;;;;;;;;;17.30;50.10;;;;;;5045560;28;19909;-91
2022/12/05 08:00:22;;;;;;;;;;;17.30;50.00;;;;;;5045674;28;20023;-92
2022/12/05 08:02:47;;;;;;;;;;;17.40;50.10;;;;;;5045103;28;20050;-92
2022/12/05 08:05:14;;;;;;;;;;;17.40;50.00;;;;;;5046863;28;19913;-92
2022/12/05 08:07:39;;;;;;;;;;;17.40;50.00;;;;;;5046742;28;19913;-92
2022/12/05 08:10:05;;;;;;;;;;;17.50;49.90;;;;;;5047189;28;19916;-92
2022/12/05 08:12:32;;;;;;;;;;;17.60;49.80;;;;;;5046744;28;19908;-92
2022/12/05 08:14:57;;;;;;;;;;;17.60;49.70;;;;;;5047841;28;19909;-92
2022/12/05 08:17:23;;;;;;;;;;;17.60;49.70;;;;;;5047090;28;19993;-91
2022/12/05 08:19:51;;;;;;;;;;;17.60;50.10;;;;;;5046579;28;19916;-91
2022/12/05 08:22:17;;;;;;;;;;;17.60;49.70;;;;;;5049061;28;19948;-91
2022/12/05 08:24:43;;;;;;;;;;;17.70;49.80;;;;;;5048914;28;19944;-91
2022/12/05 08:27:11;;;;;;;;;;;17.70;49.70;;;;;;5049298;28;19917;-91
2022/12/05 08:29:37;;;;;;;;;;;17.70;49.60;;;;;;5047148;28;19913;-91
2022/12/05 08:32:03;;;;;;;;;;;17.70;49.60;;;;;;5046484;28;19909;-92
2022/12/05 08:34:31;;;;;;;;;;;17.70;49.60;;;;;;5045978;28;19917;-92
2022/12/05 08:36:57;;;;;;;;;;;17.80;49.60;;;;;;5044959;28;19947;-91
2022/12/05 08:39:26;;;;;;;;;;;17.70;49.60;;;;;;5046305;28;20212;-91
2022/12/05 08:41:54;;;;;;;;;;;17.70;49.70;;;;;;5047381;28;19944;-92
2022/12/05 08:44:24;;;;;;;;;;;17.70;49.70;;;;;;5047290;28;20032;-91
2022/12/05 08:46:49;;;;;;;;;;;17.70;49.70;;;;;;5046419;28;19916;-91
2022/12/05 08:49:16;;;;;;;;;;;17.70;49.70;;;;;;5047262;28;19912;-91
2022/12/05 08:51:42;;;;;;;;;;;17.70;49.70;;;;;;5045700;28;19919;-92
2022/12/05 08:54:07;;;;;;;;;;;17.70;49.80;;;;;;5046904;28;20011;-91
2022/12/05 08:56:33;;;;;;;;;;;17.70;49.90;;;;;;5046193;28;19909;-92
2022/12/05 08:59:01;;;;;;;;;;;17.70;49.90;;;;;;5048276;28;20072;-91
2022/12/05 09:01:30;;;;;;;;;;;17.60;49.90;;;;;;5044277;28;20278;-91
2022/12/05 09:03:56;;;;;;;;;;;17.60;50.00;;;;;;5047750;28;19913;-92
2022/12/05 09:06:25;;;;;;;;;;;17.50;50.00;;;;;;5050019;28;20926;-92
2022/12/05 09:08:59;;;;;;;;;;;17.50;50.20;;;;;;5053041;28;19924;-92
2022/12/05 09:11:26;;;;;;;;;;;17.30;50.40;;;;;;5068515;28;20258;-91
2022/12/05 09:13:52;;;;;;;;;;;17.20;50.60;;;;;;5051446;28;19913;-92
2022/12/05 09:16:19;;;;;;;;;;;17.00;50.70;;;;;;5050515;28;20305;-92
2022/12/05 09:18:45;;;;;;;;;;;16.90;51.00;;;;;;5052262;28;20015;-92
2022/12/05 09:21:13;;;;;;;;;;;16.80;51.20;;;;;;5050199;28;20238;-92
2022/12/05 09:23:38;;;;;;;;;;;16.70;51.40;;;;;;5051233;28;19909;-91
2022/12/05 09:26:05;;;;;;;;;;;16.60;51.60;;;;;;5050835;28;19909;-91
2022/12/05 09:28:32;;;;;;;;;;;16.60;51.60;;;;;;5051536;28;19917;-91
2022/12/05 09:31:02;;;;;;;;;;;16.70;51.60;;;;;;5050982;28;19909;-91
2022/12/05 09:33:28;;;;;;;;;;;16.80;51.30;;;;;;5050108;28;19938;-91
2022/12/05 09:35:54;;;;;;;;;;;17.10;51.00;;;;;;5050279;28;20012;-91
2022/12/05 09:38:20;;;;;;;;;;;17.40;50.70;;;;;;5050917;28;20008;-91
2022/12/05 09:40:48;;;;;;;;;;;17.50;50.40;;;;;;5049656;28;20206;-91
2022/12/05 09:43:34;;;;;;;;;;;17.60;50.10;;;;;;5050531;28;20329;-91
2022/12/05 09:46:08;;;;;;;;;;;17.80;50.00;;;;;;5053640;28;20131;-92
2022/12/05 09:48:34;;;;;;;;;;;17.80;49.80;;;;;;5048027;28;19978;-91
2022/12/05 09:51:03;;;;;;;;;;;17.90;49.70;;;;;;5050885;28;19909;-91
2022/12/05 09:53:33;;;;;;;;;;;18.00;49.70;;;;;;5052128;28;20179;-91
2022/12/05 09:56:08;;;;;;;;;;;18.10;49.60;;;;;;5051477;28;19916;-91
2022/12/05 09:58:44;;;;;;;;;;;18.10;49.60;;;;;;5066253;28;20244;-91
2022/12/05 10:01:26;;;;;;;;;;;18.00;49.60;;;;;;5046819;28;19908;-91
2022/12/05 10:04:11;;;;;;;;;;;18.00;49.60;;;;;;5064932;28;19935;-91
2022/12/05 10:06:46;;;;;;;;;;;18.00;49.60;;;;;;5045444;28;19909;-91
2022/12/05 10:09:14;;;;;;;;;;;18.00;49.60;;;;;;5046289;28;20302;-91
2022/12/05 10:11:40;;;;;;;;;;;18.00;49.60;;;;;;5052444;28;20143;-91
2022/12/05 10:14:20;;;;;;;;;;;17.90;49.60;;;;;;5064819;28;19963;-91
2022/12/05 10:16:48;;;;;;;;;;;17.90;49.70;;;;;;5049304;28;20263;-92
2022/12/05 10:19:24;;;;;;;;;;;17.80;49.80;;;;;;5049993;28;19917;-91
2022/12/05 10:21:52;;;;;;;;;;;17.80;49.90;;;;;;5051502;28;19976;-91
2022/12/05 10:24:47;;;;;;;;;;;17.70;50.00;;;;;;5033954;28;19909;-91
2022/12/05 10:27:24;;;;;;;;;;;17.60;50.10;;;;;;5046895;28;20137;-91
2022/12/05 10:29:56;;;;;;;;;;;17.50;50.20;;;;;;5047284;28;19921;-91
2022/12/05 10:32:30;;;;;;;;;;;17.40;50.30;;;;;;5048576;28;19909;-91
2022/12/05 10:35:00;;;;;;;;;;;17.40;50.50;;;;;;5048242;28;19974;-91
2022/12/05 10:37:29;;;;;;;;;;;17.30;50.60;;;;;;5048159;28;20054;-91
2022/12/05 10:39:57;;;;;;;;;;;17.20;50.60;;;;;;5046623;28;19939;-92
2022/12/05 10:42:33;;;;;;;;;;;17.20;50.70;;;;;;5048676;28;20010;-91
2022/12/05 10:45:01;;;;;;;;;;;17.10;50.80;;;;;;5047992;28;20120;-91
2022/12/05 10:47:27;;;;;;;;;;;17.10;50.90;;;;;;5047530;28;19982;-91
2022/12/05 10:49:54;;;;;;;;;;;17.10;51.00;;;;;;5045854;28;20343;-91
2022/12/05 10:52:20;;;;;;;;;;;17.00;51.00;;;;;;5048447;28;20325;-91
2022/12/05 10:55:09;;;;;;;;;;;17.00;51.10;;;;;;5049259;28;20246;-91
2022/12/05 10:57:34;;;;;;;;;;;17.00;51.10;;;;;;5056096;28;19927;-91
2022/12/05 11:00:11;;;;;;;;;;;17.00;51.10;;;;;;5049867;28;19917;-92
2022/12/05 11:02:38;;;;;;;;;;;17.10;51.10;;;;;;5046701;28;19982;-91
2022/12/05 11:05:04;;;;;;;;;;;17.10;51.00;;;;;;5048184;28;19913;-91
2022/12/05 11:07:35;;;;;;;;;;;17.10;51.00;;;;;;5049060;28;20287;-91
2022/12/05 11:10:15;;;;;;;;;;;17.20;50.90;;;;;;5047742;28;20125;-91
2022/12/05 11:12:44;;;;;;;;;;;17.30;50.90;;;;;;5049583;28;19909;-91
2022/12/05 11:15:18;;;;;;;;;;;17.30;50.80;;;;;;5048829;28;19999;-91
2022/12/05 11:17:44;;;;;;;;;;;17.40;50.80;;;;;;5065315;28;19955;-91
2022/12/05 11:20:10;;;;;;;;;;;17.50;50.60;;;;;;5048813;28;20289;-91
2022/12/05 11:22:36;;;;;;;;;;;17.60;50.50;;;;;;5049305;28;20144;-91
2022/12/05 11:25:21;;;;;;;;;;;17.60;50.30;;;;;;5048935;28;19916;-91
2022/12/05 11:27:47;;;;;;;;;;;17.70;50.30;;;;;;5049410;28;19951;-92
2022/12/05 11:30:20;;;;;;;;;;;17.70;50.30;;;;;;5049857;28;19944;-92
2022/12/05 11:32:46;;;;;;;;;;;17.70;50.20;;;;;;5047314;28;19923;-92
2022/12/05 11:35:11;;;;;;;;;;;17.80;50.20;;;;;;5047558;28;19917;-92
2022/12/05 11:37:57;;;;;;;;;;;17.80;50.10;;;;;;5059926;28;19913;-92
2022/12/05 11:40:26;;;;;;;;;;;17.80;50.10;;;;;;5061030;28;20033;-92
2022/12/05 11:43:15;;;;;;;;;;;17.80;50.10;;;;;;5060766;28;20019;-92
2022/12/05 11:46:03;;;;;;;;;;;17.80;50.10;;;;;;5055567;28;20329;-91
2022/12/05 11:48:29;;;;;;;;;;;17.80;50.20;;;;;;5027681;28;19964;-92
2022/12/05 11:51:04;;;;;;;;;;;17.70;50.30;;;;;;5065832;28;20196;-92
2022/12/05 11:53:32;;;;;;;;;;;17.70;50.30;;;;;;5064747;28;20057;-92
2022/12/05 11:56:04;;;;;;;;;;;17.70;50.40;;;;;;5065188;28;19956;-93
2022/12/05 11:58:55;;;;;;;;;;;17.60;50.40;;;;;;5060995;28;20164;-92
2022/12/05 12:01:39;;;;;;;;;;;17.60;50.50;;;;;;5046661;28;19909;-92
2022/12/05 12:04:15;;;;;;;;;;;17.50;50.60;;;;;;5062141;28;19937;-92
2022/12/05 12:06:43;;;;;;;;;;;17.50;50.70;;;;;;5045999;28;19909;-92
2022/12/05 12:09:21;;;;;;;;;;;17.40;50.80;;;;;;5062306;28;19916;-92
2022/12/05 12:12:05;;;;;;;;;;;17.40;50.90;;;;;;5046615;28;20263;-92
2022/12/05 12:14:53;;;;;;;;;;;17.30;50.90;;;;;;5061607;28;19909;-92
2022/12/05 12:17:27;;;;;;;;;;;17.30;51.00;;;;;;5062152;28;19952;-92
2022/12/05 12:20:12;;;;;;;;;;;17.30;51.10;;;;;;5064864;28;20214;-92
2022/12/05 12:22:57;;;;;;;;;;;17.20;51.10;;;;;;5061782;28;19913;-92
2022/12/05 12:25:26;;;;;;;;;;;17.20;51.10;;;;;;5046483;28;19909;-92
2022/12/05 12:27:55;;;;;;;;;;;17.20;51.30;;;;;;5046850;28;19990;-92
2022/12/05 12:30:23;;;;;;;;;;;17.20;51.30;;;;;;5062951;28;19996;-92
2022/12/05 12:32:49;;;;;;;;;;;17.10;51.30;;;;;;5047443;28;20038;-92
2022/12/05 12:35:26;;;;;;;;;;;17.10;51.30;;;;;;5060973;28;19909;-92
2022/12/05 12:38:22;;;;;;;;;;;17.10;51.30;;;;;;5062345;28;19917;-92
2022/12/05 12:40:48;;;;;;;;;;;17.10;51.40;;;;;;5045039;28;19927;-92
2022/12/05 12:43:32;;;;;;;;;;;17.20;51.30;;;;;;5062744;28;20070;-92
2022/12/05 12:46:13;;;;;;;;;;;17.20;51.30;;;;;;5060826;28;19908;-92
2022/12/05 12:48:38;;;;;;;;;;;17.20;51.30;;;;;;5044752;28;19917;-92
2022/12/05 12:51:07;;;;;;;;;;;17.30;51.20;;;;;;5061359;28;19917;-91
2022/12/05 12:53:57;;;;;;;;;;;17.30;51.10;;;;;;5045369;28;19909;-91
2022/12/05 12:56:37;;;;;;;;;;;17.40;51.10;;;;;;5047962;28;20200;-92
2022/12/05 12:59:12;;;;;;;;;;;17.50;50.90;;;;;;5051833;28;19956;-92
2022/12/05 13:01:52;;;;;;;;;;;17.50;50.80;;;;;;5066573;28;20020;-92
2022/12/05 13:04:32;;;;;;;;;;;17.60;50.80;;;;;;5046953;28;19944;-92
2022/12/05 13:07:24;;;;;;;;;;;17.50;50.80;;;;;;5040996;28;19909;-91
2022/12/05 13:09:55;;;;;;;;;;;17.50;50.80;;;;;;5031249;28;19959;-91
2022/12/05 13:12:23;;;;;;;;;;;17.60;50.80;;;;;;5041752;28;19913;-91
2022/12/05 13:14:59;;;;;;;;;;;17.60;50.80;;;;;;5045452;28;20271;-91
2022/12/05 13:17:25;;;;;;;;;;;17.60;50.80;;;;;;5043344;28;19909;-91
2022/12/05 13:19:56;;;;;;;;;;;17.60;50.80;;;;;;5044672;28;19908;-91
2022/12/05 13:22:23;;;;;;;;;;;17.60;50.80;;;;;;5046318;28;20444;-91
2022/12/05 13:24:50;;;;;;;;;;;17.60;50.70;;;;;;5043681;28;20124;-91
2022/12/05 13:27:26;;;;;;;;;;;17.60;50.70;;;;;;5046125;28;19909;-91
2022/12/05 13:29:54;;;;;;;;;;;17.60;50.70;;;;;;5044737;28;20076;-91
2022/12/05 13:32:25;;;;;;;;;;;17.60;50.80;;;;;;5046914;28;19962;-92
2022/12/05 13:34:58;;;;;;;;;;;17.60;50.80;;;;;;5061604;28;19974;-92
2022/12/05 13:43:07;;;;;;;;;;;17.60;50.80;;;;;;5047283;28;20032;-92
2022/12/05 13:45:33;;;;;;;;;;;17.50;50.90;;;;;;5046104;28;19913;-92
2022/12/05 13:47:59;;;;;;;;;;;17.50;50.90;;;;;;5046587;28;19912;-92
2022/12/05 13:50:29;;;;;;;;;;;17.50;50.90;;;;;;5062013;28;20006;-92
2022/12/05 13:53:00;;;;;;;;;;;17.50;50.90;;;;;;5049794;28;19909;-92
2022/12/05 13:55:28;;;;;;;;;;;17.50;51.00;;;;;;5051044;28;19913;-92
2022/12/05 13:58:13;;;;;;;;;;;17.50;51.00;;;;;;5050298;28;19912;-93
2022/12/05 14:00:39;;;;;;;;;;;17.50;51.00;;;;;;5009973;28;19909;-92
2022/12/05 14:03:14;;;;;;;;;;;17.40;51.00;;;;;;5049594;28;19909;-93
2022/12/05 14:05:41;;;;;;;;;;;17.40;51.10;;;;;;5048991;28;20244;-92
2022/12/05 14:08:26;;;;;;;;;;;17.40;51.20;;;;;;5048147;28;19920;-92
2022/12/05 14:10:51;;;;;;;;;;;17.40;51.20;;;;;;5062703;28;19909;-92
2022/12/05 14:13:20;;;;;;;;;;;17.40;51.20;;;;;;5046975;28;19920;-92
2022/12/05 14:15:52;;;;;;;;;;;17.30;51.20;;;;;;5063473;28;20058;-92
2022/12/05 14:18:21;;;;;;;;;;;17.30;51.30;;;;;;5049087;28;19909;-91
2022/12/05 14:20:49;;;;;;;;;;;17.20;51.40;;;;;;5062573;28;20182;-92
2022/12/05 14:23:24;;;;;;;;;;;17.10;51.60;;;;;;5064388;28;19909;-92
2022/12/05 14:25:55;;;;;;;;;;;16.90;51.70;;;;;;5064289;28;20272;-91
2022/12/05 14:28:46;;;;;;;;;;;16.70;52.00;;;;;;5066862;28;19912;-91
2022/12/05 14:31:30;;;;;;;;;;;16.60;52.30;;;;;;5046823;28;19917;-91
2022/12/05 14:34:26;;;;;;;;;;;16.50;52.50;;;;;;5063085;28;19975;-91
2022/12/05 14:37:00;;;;;;;;;;;16.50;52.60;;;;;;5059011;28;19924;-92
2022/12/05 14:39:46;;;;;;;;;;;16.60;52.50;;;;;;5045994;28;20168;-92
2022/12/05 14:42:24;;;;;;;;;;;16.70;52.70;;;;;;5061174;28;19913;-92
2022/12/05 14:44:51;;;;;;;;;;;17.00;51.80;;;;;;5061426;28;19909;-91
2022/12/05 14:47:27;;;;;;;;;;;17.40;51.40;;;;;;5046426;28;19909;-91
2022/12/05 14:49:54;;;;;;;;;;;17.70;51.00;;;;;;5045696;28;19913;-91